createdAt,value
2022-12-06T00:02:11.370Z,423.27
2022-12-06T00:04:38.003Z,376.07
2022-12-06T00:07:04.541Z,412.87
2022-12-06T00:09:31.851Z,445.47
2022-12-06T00:11:58.412Z,438.77
2022-12-06T00:14:25.983Z,478.17
2022-12-06T00:16:52.663Z,420.00
2022-12-06T00:19:20.686Z,532.23
2022-12-06T00:21:47.427Z,402.03
2022-12-06T00:24:15.631Z,489.90
2022-12-06T00:26:43.688Z,473.33
2022-12-06T00:29:14.378Z,518.80
2022-12-06T00:31:41.200Z,501.40
2022-12-06T00:34:08.086Z,469.43
2022-12-06T00:36:36.354Z,487.07
2022-12-06T00:39:05.125Z,486.17
2022-12-06T00:41:31.675Z,470.87
2022-12-06T00:43:58.249Z,517.73
2022-12-06T00:46:26.511Z,563.60
2022-12-06T00:48:54.083Z,579.75
2022-12-06T00:51:21.780Z,604.43
2022-12-06T00:53:48.664Z,698.43
2022-12-06T00:56:16.837Z,764.30
2022-12-06T00:58:43.642Z,615.00
2022-12-06T01:01:11.575Z,624.23
2022-12-06T01:03:38.879Z,640.80
2022-12-06T01:06:06.341Z,478.53
2022-12-06T01:08:33.592Z,568.47
2022-12-06T01:11:01.227Z,515.90
2022-12-06T01:13:28.077Z,420.53
2022-12-06T01:15:54.820Z,473.93
2022-12-06T01:18:21.689Z,490.37
2022-12-06T01:20:48.297Z,528.73
2022-12-06T01:23:15.453Z,537.63
2022-12-06T01:25:51.751Z,602.83
2022-12-06T01:28:18.371Z,615.63
2022-12-06T01:30:45.175Z,589.13
2022-12-06T01:33:11.810Z,651.77
2022-12-06T01:35:41.799Z,695.33
2022-12-06T01:38:09.112Z,710.17
2022-12-06T01:40:39.729Z,726.37
2022-12-06T01:43:06.806Z,792.57
2022-12-06T01:45:33.421Z,795.13
2022-12-06T01:48:00.103Z,805.40
2022-12-06T01:50:29.332Z,695.23
2022-12-06T01:52:59.359Z,778.10
2022-12-06T01:55:28.156Z,641.57
2022-12-06T01:57:57.283Z,718.27
2022-12-06T02:00:24.035Z,715.50
2022-12-06T02:02:50.759Z,795.13
2022-12-06T02:05:17.932Z,746.60
2022-12-06T02:07:44.534Z,625.83
2022-12-06T02:10:11.174Z,664.80
2022-12-06T02:12:37.708Z,661.43
2022-12-06T02:15:04.629Z,654.03
2022-12-06T02:17:46.379Z,659.07
2022-12-06T02:20:26.857Z,547.63
2022-12-06T02:23:12.238Z,691.53
2022-12-06T02:25:43.172Z,756.43
2022-12-06T02:28:16.143Z,664.70
2022-12-06T02:30:53.330Z,604.33
2022-12-06T02:33:25.338Z,592.53
2022-12-06T02:36:02.705Z,649.17
2022-12-06T02:38:33.486Z,684.63
2022-12-06T02:41:02.345Z,606.23
2022-12-06T02:43:34.959Z,650.97
2022-12-06T02:46:03.029Z,622.17
2022-12-06T02:48:31.465Z,647.33
2022-12-06T02:51:03.229Z,591.57
2022-12-06T02:53:30.707Z,566.67
2022-12-06T02:55:57.542Z,662.50
2022-12-06T02:58:24.204Z,531.67
2022-12-06T03:00:53.435Z,648.80
2022-12-06T03:03:25.981Z,625.37
2022-12-06T03:06:09.773Z,597.90
2022-12-06T03:08:41.939Z,668.90
2022-12-06T03:11:08.562Z,672.67
2022-12-06T03:13:42.328Z,578.63
2022-12-06T03:16:11.966Z,612.23
2022-12-06T03:18:49.580Z,606.90
2022-12-06T03:21:26.486Z,524.13
2022-12-06T03:23:53.300Z,616.53
2022-12-06T03:26:22.540Z,702.87
2022-12-06T03:28:50.943Z,696.60
2022-12-06T03:31:17.520Z,653.43
2022-12-06T03:33:47.255Z,721.00
2022-12-06T03:36:15.133Z,702.80
2022-12-06T03:39:02.877Z,726.50
2022-12-06T03:41:43.444Z,713.07
2022-12-06T03:44:10.260Z,654.67
2022-12-06T03:46:38.736Z,679.53
2022-12-06T03:49:12.024Z,764.40
2022-12-06T03:51:39.698Z,727.70
2022-12-06T03:54:07.582Z,827.70
2022-12-06T03:56:36.780Z,798.83
2022-12-06T03:59:07.447Z,669.00
2022-12-06T04:01:37.484Z,608.17
2022-12-06T04:04:04.665Z,648.27
2022-12-06T04:06:31.310Z,632.77
2022-12-06T04:09:17.833Z,606.73
2022-12-06T04:11:44.531Z,617.37
2022-12-06T04:14:11.233Z,647.33
2022-12-06T04:16:56.926Z,686.83
2022-12-06T04:19:27.258Z,606.10
2022-12-06T04:22:12.897Z,711.80
2022-12-06T04:24:39.798Z,592.03
2022-12-06T04:27:25.378Z,596.57
2022-12-06T04:30:10.712Z,648.83
2022-12-06T04:32:55.747Z,656.63
2022-12-06T04:35:41.119Z,553.43
2022-12-06T04:38:26.186Z,521.73
2022-12-06T04:40:52.892Z,476.60
2022-12-06T04:43:37.990Z,507.80
2022-12-06T04:46:04.690Z,568.83
2022-12-06T04:48:31.478Z,646.17
2022-12-06T04:50:58.100Z,637.33
2022-12-06T04:53:24.662Z,655.43
2022-12-06T04:55:52.021Z,662.50
2022-12-06T04:58:18.726Z,683.20
2022-12-06T05:00:45.348Z,725.17
2022-12-06T05:03:12.554Z,664.13
2022-12-06T05:05:39.275Z,634.10
2022-12-06T05:08:06.315Z,565.43
2022-12-06T05:10:33.640Z,600.53
2022-12-06T05:13:00.864Z,567.63
2022-12-06T05:15:29.365Z,589.20
2022-12-06T05:17:56.666Z,660.87
2022-12-06T05:20:23.829Z,630.87
2022-12-06T05:22:50.471Z,497.10
2022-12-06T05:25:17.150Z,593.27
2022-12-06T05:27:44.758Z,667.77
2022-12-06T05:30:12.194Z,730.97
2022-12-06T05:32:39.569Z,608.50
2022-12-06T05:35:06.831Z,651.20
2022-12-06T05:37:33.398Z,694.03
2022-12-06T05:40:00.154Z,660.23
2022-12-06T05:42:26.869Z,607.27
2022-12-06T05:44:53.339Z,633.53
2022-12-06T05:47:19.895Z,685.70
2022-12-06T05:49:46.571Z,639.97
2022-12-06T05:52:13.194Z,746.23
2022-12-06T05:54:39.702Z,805.43
2022-12-06T05:57:06.198Z,775.10
2022-12-06T05:59:33.715Z,771.13
2022-12-06T06:02:00.427Z,758.53
2022-12-06T06:04:27.175Z,865.57
2022-12-06T06:06:53.819Z,759.13
2022-12-06T06:09:20.388Z,773.60
2022-12-06T06:11:46.892Z,786.50
2022-12-06T06:14:14.862Z,888.17
2022-12-06T06:16:41.452Z,943.63
2022-12-06T06:19:08.021Z,857.23
2022-12-06T06:21:34.799Z,943.63
2022-12-06T06:24:01.424Z,818.10
2022-12-06T06:26:28.031Z,769.63
2022-12-06T06:28:54.587Z,742.93
2022-12-06T06:31:21.682Z,762.60
2022-12-06T06:33:48.250Z,652.70
2022-12-06T06:36:14.843Z,742.23
2022-12-06T06:38:41.369Z,789.17
2022-12-06T06:41:07.982Z,761.23
2022-12-06T06:43:34.608Z,734.50
2022-12-06T06:46:02.294Z,662.33
2022-12-06T06:48:30.135Z,647.33
2022-12-06T06:51:01.803Z,653.30
2022-12-06T06:53:28.592Z,629.70
2022-12-06T06:55:55.621Z,734.30
2022-12-06T06:58:22.311Z,736.27
2022-12-06T07:00:56.170Z,793.23
2022-12-06T07:03:23.465Z,808.97
2022-12-06T07:05:54.155Z,930.20
2022-12-06T07:08:20.744Z,807.10
2022-12-06T07:10:48.808Z,844.17
2022-12-06T07:13:15.971Z,727.80
2022-12-06T07:15:42.638Z,911.53
2022-12-06T07:18:09.390Z,784.33
2022-12-06T07:20:36.032Z,895.17
2022-12-06T07:23:02.528Z,919.17
2022-12-06T07:25:29.315Z,875.00
2022-12-06T07:27:55.787Z,839.77
2022-12-06T07:30:27.172Z,871.93
2022-12-06T07:32:54.323Z,770.17
2022-12-06T07:35:20.895Z,887.43
2022-12-06T07:37:47.640Z,1017.40
2022-12-06T07:40:15.467Z,818.83
2022-12-06T07:43:00.670Z,910.40
2022-12-06T07:45:27.383Z,865.07
2022-12-06T07:47:53.871Z,900.57
2022-12-06T07:50:21.800Z,839.10
2022-12-06T07:52:49.303Z,722.97
2022-12-06T07:55:16.204Z,757.00
2022-12-06T07:57:43.890Z,729.77
2022-12-06T08:00:12.051Z,667.37
2022-12-06T08:02:38.926Z,871.57
2022-12-06T08:05:05.617Z,969.77
2022-12-06T08:07:32.500Z,795.60
2022-12-06T08:09:59.547Z,745.93
2022-12-06T08:12:26.612Z,897.00
2022-12-06T08:14:58.148Z,941.83
2022-12-06T08:17:26.097Z,959.60
2022-12-06T08:19:52.685Z,942.40
2022-12-06T08:22:19.394Z,1025.03
2022-12-06T08:24:45.923Z,811.67
2022-12-06T08:27:12.510Z,965.87
2022-12-06T08:29:39.092Z,972.57
2022-12-06T08:32:06.045Z,1051.17
2022-12-06T08:34:33.523Z,896.20
2022-12-06T08:37:03.318Z,882.00
2022-12-06T08:39:30.570Z,782.20
2022-12-06T08:42:00.135Z,1051.03
2022-12-06T08:44:27.187Z,861.53
2022-12-06T08:46:54.264Z,840.47
2022-12-06T08:49:21.609Z,568.87
2022-12-06T08:51:48.347Z,532.43
2022-12-06T08:54:15.998Z,542.07
2022-12-06T08:56:42.618Z,349.90
2022-12-06T08:59:09.377Z,432.33
2022-12-06T09:01:38.337Z,308.67
2022-12-06T09:04:06.348Z,318.27
2022-12-06T09:06:33.394Z,194.80
2022-12-06T09:08:59.855Z,162.87
2022-12-06T09:11:26.857Z,165.47
2022-12-06T09:13:53.319Z,188.13
2022-12-06T09:16:21.589Z,138.07
2022-12-06T09:18:48.465Z,152.47
2022-12-06T09:21:16.280Z,137.93
2022-12-06T09:23:42.854Z,178.23
2022-12-06T09:26:09.821Z,249.97
2022-12-06T09:28:37.527Z,171.27
2022-12-06T09:31:04.590Z,125.97
2022-12-06T09:33:31.417Z,112.80
2022-12-06T09:35:59.573Z,116.73
2022-12-06T09:38:27.936Z,96.90
2022-12-06T09:41:09.995Z,124.30
2022-12-06T09:43:45.206Z,99.10
2022-12-06T09:46:24.052Z,92.83
2022-12-06T09:48:59.270Z,117.40
2022-12-06T09:51:38.150Z,93.17
2022-12-06T09:54:13.084Z,82.60
2022-12-06T09:56:42.635Z,66.10
2022-12-06T09:59:15.559Z,70.83
2022-12-06T10:01:42.142Z,71.50
2022-12-06T10:04:27.575Z,63.50
2022-12-06T10:07:06.925Z,51.47
2022-12-06T10:09:42.765Z,48.17
2022-12-06T10:12:26.682Z,50.43
2022-12-06T10:15:02.133Z,56.53
2022-12-06T10:17:41.680Z,47.33
2022-12-06T10:20:14.913Z,35.83
2022-12-06T10:23:00.095Z,47.73
2022-12-06T10:25:31.720Z,40.30
2022-12-06T10:28:18.567Z,40.60
2022-12-06T10:30:52.404Z,42.57
2022-12-06T10:33:19.059Z,42.80
2022-12-06T10:35:59.831Z,43.33
2022-12-06T10:38:39.801Z,52.37
2022-12-06T10:41:18.637Z,49.10
2022-12-06T10:43:58.158Z,55.27
2022-12-06T10:46:43.456Z,41.53
2022-12-06T10:49:19.124Z,33.03
2022-12-06T10:51:48.870Z,43.43
2022-12-06T10:54:22.792Z,30.27
2022-12-06T10:56:50.110Z,36.30
2022-12-06T10:59:31.865Z,29.97
2022-12-06T11:02:01.296Z,32.73
2022-12-06T11:04:37.554Z,27.50
2022-12-06T11:07:27.459Z,33.83
2022-12-06T11:09:56.286Z,27.13
2022-12-06T11:12:30.991Z,27.23
2022-12-06T11:15:16.561Z,27.10
2022-12-06T11:17:45.074Z,26.93
2022-12-06T11:20:31.913Z,28.00
2022-12-06T11:23:06.203Z,39.13
2022-12-06T11:25:41.995Z,46.17
2022-12-06T11:28:11.522Z,36.70
2022-12-06T11:30:38.112Z,33.07
2022-12-06T11:33:05.312Z,27.23
2022-12-06T11:35:32.280Z,25.73
2022-12-06T11:38:02.061Z,26.70
2022-12-06T11:40:34.296Z,35.47
2022-12-06T11:43:02.483Z,30.47
2022-12-06T11:45:33.273Z,32.13
2022-12-06T11:48:01.999Z,27.33
2022-12-06T11:50:29.554Z,33.27
2022-12-06T11:52:59.592Z,23.00
2022-12-06T11:55:35.969Z,32.83
2022-12-06T11:58:22.887Z,31.47
2022-12-06T12:01:14.151Z,23.47
2022-12-06T12:03:42.181Z,31.60
2022-12-06T12:06:27.606Z,31.20
2022-12-06T12:08:55.657Z,27.97
2022-12-06T12:11:24.764Z,30.13
2022-12-06T12:13:52.991Z,44.87
2022-12-06T12:16:23.855Z,54.13
2022-12-06T12:18:50.860Z,37.97
2022-12-06T12:21:17.488Z,31.53
2022-12-06T12:23:45.041Z,32.97
2022-12-06T12:26:11.571Z,32.87
2022-12-06T12:28:41.041Z,29.00
2022-12-06T12:31:16.058Z,35.67
2022-12-06T12:33:42.635Z,43.57
2022-12-06T12:36:14.483Z,39.27
2022-12-06T12:38:54.175Z,41.80
2022-12-06T12:41:26.122Z,52.63
2022-12-06T12:44:36.386Z,48.77
2022-12-06T12:47:13.826Z,59.40
2022-12-06T12:49:41.118Z,50.07
2022-12-06T12:52:27.925Z,44.30
2022-12-06T12:54:59.303Z,42.63
2022-12-06T12:57:26.234Z,43.10
2022-12-06T12:59:52.869Z,103.20
2022-12-06T13:02:28.219Z,29.00
2022-12-06T13:05:32.072Z,34.47
2022-12-06T13:08:06.151Z,50.03
2022-12-06T13:10:34.454Z,33.13
2022-12-06T13:13:02.787Z,36.50
2022-12-06T13:15:32.372Z,40.57
2022-12-06T13:18:00.436Z,25.80
2022-12-06T13:20:31.405Z,19.80
2022-12-06T13:23:08.441Z,20.83
2022-12-06T13:25:36.429Z,20.17
2022-12-06T13:28:05.748Z,17.30
2022-12-06T13:30:34.357Z,17.90
2022-12-06T13:33:04.104Z,18.10
2022-12-06T13:35:38.781Z,17.53
2022-12-06T13:38:22.666Z,15.70
2022-12-06T13:40:53.559Z,15.40
2022-12-06T13:43:23.199Z,14.33
2022-12-06T13:45:51.172Z,14.00
2022-12-06T13:48:34.782Z,10.97
2022-12-06T13:51:21.537Z,13.43
2022-12-06T13:54:03.381Z,13.20
2022-12-06T13:56:31.148Z,18.13
2022-12-06T13:58:58.113Z,23.00
2022-12-06T14:01:34.281Z,27.97
2022-12-06T14:04:08.627Z,19.27
2022-12-06T14:06:42.579Z,124.03
2022-12-06T14:09:09.875Z,56.70
2022-12-06T14:11:39.892Z,17.67
2022-12-06T14:14:13.538Z,16.27
2022-12-06T14:16:41.416Z,15.67
2022-12-06T14:23:27.466Z,17.77
2022-12-06T14:26:13.261Z,28.87
2022-12-06T14:28:39.832Z,17.03
2022-12-06T14:31:07.663Z,21.63
2022-12-06T14:33:38.678Z,17.63
2022-12-06T14:36:05.413Z,17.60
2022-12-06T14:38:32.206Z,23.37
2022-12-06T14:41:17.419Z,15.27
2022-12-06T14:43:48.417Z,12.90
2022-12-06T14:46:16.406Z,13.70
2022-12-06T14:49:02.864Z,20.37
2022-12-06T14:51:37.918Z,23.37
2022-12-06T14:54:16.792Z,13.43
2022-12-06T14:56:44.646Z,19.93
2022-12-06T14:59:12.283Z,22.00
2022-12-06T15:01:49.562Z,24.80
2022-12-06T15:04:28.010Z,20.57
2022-12-06T15:06:55.885Z,20.83
2022-12-06T15:09:22.747Z,20.03
2022-12-06T15:12:08.209Z,20.30
2022-12-06T15:14:35.162Z,22.90
2022-12-06T15:17:10.903Z,19.77
2022-12-06T15:19:38.728Z,16.17
2022-12-06T15:22:14.173Z,20.13
2022-12-06T15:24:40.798Z,32.57
2022-12-06T15:27:07.313Z,23.07
2022-12-06T15:29:33.878Z,29.27
2022-12-06T15:32:00.558Z,23.60
2022-12-06T15:34:28.539Z,20.20
2022-12-06T15:37:29.847Z,25.43
2022-12-06T15:39:43.121Z,20.70
2022-12-06T15:42:12.413Z,23.17
2022-12-06T15:44:39.826Z,26.53
2022-12-06T15:47:10.641Z,29.10
2022-12-06T15:49:37.967Z,26.10
2022-12-06T15:52:04.662Z,29.43
2022-12-06T15:54:31.609Z,26.63
2022-12-06T15:56:58.211Z,25.07
2022-12-06T15:59:24.800Z,24.90
2022-12-06T16:01:51.559Z,23.00
2022-12-06T16:04:19.827Z,23.90
2022-12-06T16:06:46.728Z,26.93
2022-12-06T16:09:14.520Z,25.70
2022-12-06T16:11:41.481Z,33.73
2022-12-06T16:14:08.544Z,28.13
2022-12-06T16:16:41.484Z,25.67
2022-12-06T16:19:09.743Z,29.80
2022-12-06T16:21:49.832Z,32.67
2022-12-06T16:24:16.537Z,34.20
2022-12-06T16:26:44.993Z,26.70
2022-12-06T16:29:23.597Z,25.73
2022-12-06T16:31:51.087Z,29.63
2022-12-06T16:34:17.891Z,25.97
2022-12-06T16:36:59.862Z,30.17
2022-12-06T16:39:26.921Z,31.43
2022-12-06T16:41:53.733Z,42.77
2022-12-06T16:44:20.391Z,46.57
2022-12-06T16:46:47.067Z,30.53
2022-12-06T16:52:05.457Z,25.80
2022-12-06T16:54:32.121Z,26.57
2022-12-06T16:56:58.730Z,23.20
2022-12-06T16:59:25.352Z,22.77
2022-12-06T17:01:53.301Z,22.77
2022-12-06T17:04:20.031Z,25.27
2022-12-06T17:06:47.061Z,21.00
2022-12-06T17:09:14.092Z,28.00
2022-12-06T17:11:59.981Z,22.60
2022-12-06T17:14:26.583Z,27.37
2022-12-06T17:16:53.409Z,32.93
2022-12-06T17:19:21.399Z,31.47
2022-12-06T17:21:48.541Z,25.90
2022-12-06T17:24:15.804Z,30.43
2022-12-06T17:26:42.414Z,32.17
2022-12-06T17:29:09.298Z,25.17
2022-12-06T17:31:36.744Z,36.03
2022-12-06T17:34:03.794Z,43.87
2022-12-06T17:36:30.530Z,25.90
2022-12-06T17:38:57.666Z,22.10
2022-12-06T17:41:49.971Z,22.80
2022-12-06T17:44:18.661Z,19.13
2022-12-06T17:46:45.260Z,20.33
2022-12-06T17:49:16.975Z,25.83
2022-12-06T17:51:44.898Z,22.27
2022-12-06T17:54:11.895Z,23.73
2022-12-06T17:56:39.555Z,24.50
2022-12-06T17:59:08.013Z,25.90
2022-12-06T18:01:58.160Z,29.27
2022-12-06T18:04:21.404Z,20.90
2022-12-06T18:06:47.951Z,28.37
2022-12-06T18:09:15.201Z,29.67
2022-12-06T18:11:42.373Z,30.90
2022-12-06T18:14:10.319Z,22.53
2022-12-06T18:16:38.045Z,21.37
2022-12-06T18:19:08.692Z,25.83
2022-12-06T18:21:39.714Z,30.93
2022-12-06T18:24:25.826Z,23.70
2022-12-06T18:26:54.369Z,29.93
2022-12-06T18:29:22.119Z,24.60
2022-12-06T18:31:49.291Z,34.60
2022-12-06T18:34:16.329Z,32.13
2022-12-06T18:36:42.981Z,38.40
2022-12-06T18:39:14.984Z,34.07
2022-12-06T18:41:42.478Z,29.13
2022-12-06T18:44:10.578Z,29.93
2022-12-06T18:46:38.911Z,26.93
2022-12-06T18:49:06.450Z,33.70
2022-12-06T18:51:34.063Z,29.73
2022-12-06T18:54:02.287Z,33.40
2022-12-06T18:56:30.294Z,38.93
2022-12-06T18:58:57.781Z,33.43
2022-12-06T19:01:28.472Z,33.07
2022-12-06T19:03:55.861Z,39.27
2022-12-06T19:06:24.362Z,37.53
2022-12-06T19:08:51.738Z,33.80
2022-12-06T19:11:18.824Z,31.77
2022-12-06T19:13:56.069Z,30.83
2022-12-06T19:16:26.041Z,40.00
2022-12-06T19:18:53.742Z,34.80
2022-12-06T19:21:20.600Z,38.10
2022-12-06T19:23:47.366Z,39.73
2022-12-06T19:26:14.069Z,32.87
2022-12-06T19:28:41.243Z,34.83
2022-12-06T19:31:11.039Z,35.73
2022-12-06T19:33:38.751Z,31.87
2022-12-06T19:36:06.931Z,45.23
2022-12-06T19:38:33.776Z,31.50
2022-12-06T19:41:04.642Z,36.43
2022-12-06T19:43:50.226Z,32.70
2022-12-06T19:46:18.170Z,34.43
2022-12-06T19:48:44.887Z,28.60
2022-12-06T19:51:11.739Z,29.50
2022-12-06T19:53:40.113Z,40.80
2022-12-06T19:56:08.251Z,29.50
2022-12-06T19:58:35.175Z,32.27
2022-12-06T20:01:06.288Z,31.60
2022-12-06T20:03:33.472Z,29.00
2022-12-06T20:06:01.283Z,31.67
2022-12-06T20:08:28.217Z,32.30
2022-12-06T20:10:54.822Z,31.17
2022-12-06T20:13:23.562Z,33.57
2022-12-06T20:15:50.155Z,29.00
2022-12-06T20:18:18.695Z,32.87
2022-12-06T20:20:48.783Z,28.40
2022-12-06T20:23:15.434Z,32.37
2022-12-06T20:25:42.630Z,29.67
2022-12-06T20:28:13.554Z,30.63
2022-12-06T20:30:40.682Z,33.57
2022-12-06T20:33:07.416Z,29.20
2022-12-06T20:35:36.763Z,31.73
2022-12-06T20:38:03.405Z,36.53
2022-12-06T20:40:31.713Z,29.60
2022-12-06T20:42:58.505Z,25.80
2022-12-06T20:45:25.512Z,36.90
2022-12-06T20:47:52.390Z,28.10
2022-12-06T20:50:19.218Z,35.93
2022-12-06T20:52:45.817Z,38.33
2022-12-06T20:55:12.428Z,28.57
2022-12-06T20:57:39.199Z,27.63
2022-12-06T21:00:07.825Z,31.50
2022-12-06T21:02:34.787Z,29.60
2022-12-06T21:05:01.482Z,34.43
2022-12-06T21:07:28.173Z,33.73
2022-12-06T21:09:54.796Z,27.97
2022-12-06T21:12:22.446Z,28.10
2022-12-06T21:14:49.113Z,38.23
2022-12-06T21:17:15.772Z,42.37
2022-12-06T21:19:42.738Z,26.60
2022-12-06T21:22:09.390Z,37.17
2022-12-06T21:24:36.007Z,35.27
2022-12-06T21:27:02.626Z,29.90
2022-12-06T21:29:31.155Z,38.23
2022-12-06T21:31:59.855Z,33.30
2022-12-06T21:34:26.463Z,30.40
2022-12-06T21:36:53.084Z,28.13
2022-12-06T21:39:19.680Z,34.27
2022-12-06T21:41:46.326Z,31.37
2022-12-06T21:44:12.783Z,47.53
2022-12-06T21:46:39.441Z,34.80
2022-12-06T21:49:06.086Z,36.43
2022-12-06T21:51:32.773Z,38.73
2022-12-06T21:53:59.485Z,41.27
2022-12-06T21:56:27.926Z,40.17
2022-12-06T21:58:54.879Z,45.30
2022-12-06T22:01:24.057Z,43.10
2022-12-06T22:03:51.954Z,43.40
2022-12-06T22:06:18.930Z,39.03
2022-12-06T22:08:46.306Z,45.90
2022-12-06T22:11:17.099Z,54.33
2022-12-06T22:13:43.920Z,50.50
2022-12-06T22:16:11.872Z,51.00
2022-12-06T22:18:44.756Z,49.50
2022-12-06T22:21:14.905Z,45.73
2022-12-06T22:23:41.768Z,47.30
2022-12-06T22:26:09.077Z,54.87
2022-12-06T22:28:36.066Z,52.10
2022-12-06T22:31:12.138Z,53.97
2022-12-06T22:33:39.098Z,51.57
2022-12-06T22:36:05.926Z,63.70
2022-12-06T22:38:32.545Z,54.33
2022-12-06T22:40:59.939Z,78.57
2022-12-06T22:43:26.762Z,55.60
2022-12-06T22:45:53.586Z,56.00
2022-12-06T22:48:20.296Z,43.93
2022-12-06T22:50:46.826Z,59.63
2022-12-06T22:53:13.410Z,55.33
2022-12-06T23:00:05.217Z,60.20
2022-12-06T23:02:31.903Z,60.80
2022-12-06T23:04:58.530Z,57.23
2022-12-06T23:07:25.113Z,53.87
2022-12-06T23:09:51.695Z,55.17
2022-12-06T23:12:18.278Z,54.80
2022-12-06T23:14:44.873Z,54.70
2022-12-06T23:17:11.473Z,58.50
2022-12-06T23:19:38.078Z,53.23
2022-12-06T23:22:06.698Z,52.50
2022-12-06T23:24:33.315Z,61.13
2022-12-06T23:26:59.975Z,60.40
2022-12-06T23:29:26.552Z,52.83
2022-12-06T23:31:53.346Z,65.57
2022-12-06T23:34:22.363Z,66.17
2022-12-06T23:36:49.309Z,56.40
2022-12-06T23:39:15.818Z,58.33
2022-12-06T23:41:42.367Z,65.90
2022-12-06T23:44:09.926Z,57.27
2022-12-06T23:46:37.660Z,59.03
2022-12-06T23:49:04.911Z,67.50
2022-12-06T23:51:34.125Z,59.80
2022-12-06T23:54:01.618Z,57.73
2022-12-06T23:56:29.750Z,73.30
2022-12-06T23:58:56.645Z,60.00
